KSHV/SHV METAR and TAF weather

Enter ICAO airport designator
Station Type Date Time Source
KSHV METAR 2023/02/05 12:56 UTC NOAA

KSHV 051256Z 00000KT 10SM FEW260 05/03 A3024 RMK SLPNO


Station Type Date Time Source
KSHV Decoded METAR 2023/02/05 12:56 UTC NOAA

SHREVEPORT REGIONAL AIRPORT, LA, United States (KSHV) 32-27N 93-50W 80M
Feb 05, 2023 - 07:56 AM EST / 2023.02.05 1256 UTC
Wind: Calm:0
Visibility: 10 mile(s):0
Sky conditions: mostly clear
Temperature: 41 F (5 C)
Dew Point: 37 F (3 C)
Relative Humidity: 86%
Pressure (altimeter): 30.24 in. Hg (1024 hPa)
ob: KSHV 051256Z 00000KT 10SM FEW260 05/03 A3024 RMK SLPNO
cycle: 13

Station Type Date Time Source
KSHV TAF 2023/02/05 12:22 UTC NOAA

TAF KSHV 051120Z 0512/0612 18003KT P6SM SCT045
FM051500 20009KT P6SM SCT030 BKN250
FM060000 18004KT P6SM SKC
FM060600 17005KT P6SM SCT250

Example: see airport list